sensor_id;sensor_type;location;lat;lon;timestamp;P1;durP1;ratioP1;P2;durP2;ratioP2
13343;SDS011;6741;48.964;9.406;2023-09-12T00:00:45;12.23;;;7.80;;
13343;SDS011;6741;48.964;9.406;2023-09-12T00:03:12;13.60;;;8.25;;
13343;SDS011;6741;48.964;9.406;2023-09-12T00:05:39;12.15;;;8.52;;
13343;SDS011;6741;48.964;9.406;2023-09-12T00:08:06;14.00;;;8.65;;
13343;SDS011;6741;48.964;9.406;2023-09-12T00:10:34;11.65;;;7.63;;
13343;SDS011;6741;48.964;9.406;2023-09-12T00:13:01;10.98;;;8.88;;
13343;SDS011;6741;48.964;9.406;2023-09-12T00:15:28;12.98;;;8.48;;
13343;SDS011;6741;48.964;9.406;2023-09-12T00:17:56;12.05;;;8.35;;
13343;SDS011;6741;48.964;9.406;2023-09-12T00:20:23;9.48;;;8.15;;
13343;SDS011;6741;48.964;9.406;2023-09-12T00:22:50;13.15;;;8.25;;
13343;SDS011;6741;48.964;9.406;2023-09-12T00:25:18;15.43;;;8.93;;
13343;SDS011;6741;48.964;9.406;2023-09-12T00:27:45;11.18;;;8.40;;
13343;SDS011;6741;48.964;9.406;2023-09-12T00:30:13;10.27;;;8.48;;
13343;SDS011;6741;48.964;9.406;2023-09-12T00:32:40;11.80;;;8.73;;
13343;SDS011;6741;48.964;9.406;2023-09-12T00:35:08;12.05;;;7.88;;
13343;SDS011;6741;48.964;9.406;2023-09-12T00:37:35;15.88;;;8.73;;
13343;SDS011;6741;48.964;9.406;2023-09-12T00:40:02;11.23;;;7.50;;
13343;SDS011;6741;48.964;9.406;2023-09-12T00:42:30;12.95;;;8.60;;
13343;SDS011;6741;48.964;9.406;2023-09-12T00:44:57;12.48;;;9.07;;
13343;SDS011;6741;48.964;9.406;2023-09-12T00:47:25;15.85;;;9.07;;
13343;SDS011;6741;48.964;9.406;2023-09-12T00:49:53;13.65;;;8.95;;
13343;SDS011;6741;48.964;9.406;2023-09-12T00:52:22;11.20;;;9.45;;
13343;SDS011;6741;48.964;9.406;2023-09-12T00:54:50;12.05;;;9.40;;
13343;SDS011;6741;48.964;9.406;2023-09-12T00:57:18;11.55;;;8.68;;
13343;SDS011;6741;48.964;9.406;2023-09-12T00:59:45;12.15;;;9.70;;
13343;SDS011;6741;48.964;9.406;2023-09-12T01:02:13;10.75;;;9.05;;
13343;SDS011;6741;48.964;9.406;2023-09-12T01:04:40;12.27;;;9.00;;
13343;SDS011;6741;48.964;9.406;2023-09-12T01:07:08;11.93;;;9.40;;
13343;SDS011;6741;48.964;9.406;2023-09-12T01:09:36;11.13;;;8.57;;
13343;SDS011;6741;48.964;9.406;2023-09-12T01:12:03;11.75;;;8.80;;
13343;SDS011;6741;48.964;9.406;2023-09-12T01:14:31;10.57;;;7.97;;
13343;SDS011;6741;48.964;9.406;2023-09-12T01:16:58;16.30;;;8.95;;
13343;SDS011;6741;48.964;9.406;2023-09-12T01:19:27;15.93;;;9.07;;
13343;SDS011;6741;48.964;9.406;2023-09-12T01:21:59;15.88;;;9.80;;
13343;SDS011;6741;48.964;9.406;2023-09-12T01:24:57;11.05;;;8.93;;
13343;SDS011;6741;48.964;9.406;2023-09-12T01:27:35;13.98;;;9.40;;
13343;SDS011;6741;48.964;9.406;2023-09-12T01:30:05;12.73;;;9.35;;
13343;SDS011;6741;48.964;9.406;2023-09-12T01:32:35;15.75;;;8.32;;
13343;SDS011;6741;48.964;9.406;2023-09-12T01:35:03;11.48;;;8.93;;
13343;SDS011;6741;48.964;9.406;2023-09-12T01:37:31;15.35;;;8.75;;
13343;SDS011;6741;48.964;9.406;2023-09-12T01:39:58;11.93;;;8.98;;
13343;SDS011;6741;48.964;9.406;2023-09-12T01:42:26;12.27;;;8.63;;
13343;SDS011;6741;48.964;9.406;2023-09-12T01:45:02;12.35;;;8.25;;
13343;SDS011;6741;48.964;9.406;2023-09-12T01:47:31;14.65;;;8.77;;
13343;SDS011;6741;48.964;9.406;2023-09-12T01:50:00;12.40;;;9.40;;
13343;SDS011;6741;48.964;9.406;2023-09-12T01:52:28;15.23;;;9.43;;
13343;SDS011;6741;48.964;9.406;2023-09-12T01:54:55;12.18;;;8.98;;
13343;SDS011;6741;48.964;9.406;2023-09-12T01:57:23;12.68;;;9.38;;
13343;SDS011;6741;48.964;9.406;2023-09-12T01:59:50;16.35;;;9.98;;
13343;SDS011;6741;48.964;9.406;2023-09-12T02:02:19;14.52;;;10.18;;
13343;SDS011;6741;48.964;9.406;2023-09-12T02:04:47;11.35;;;9.38;;
13343;SDS011;6741;48.964;9.406;2023-09-12T02:07:20;14.68;;;8.88;;
13343;SDS011;6741;48.964;9.406;2023-09-12T02:09:49;14.03;;;9.30;;
13343;SDS011;6741;48.964;9.406;2023-09-12T02:12:16;11.75;;;8.98;;
13343;SDS011;6741;48.964;9.406;2023-09-12T02:14:43;14.23;;;9.50;;
13343;SDS011;6741;48.964;9.406;2023-09-12T02:17:09;13.95;;;9.25;;
13343;SDS011;6741;48.964;9.406;2023-09-12T02:19:38;11.93;;;8.87;;
13343;SDS011;6741;48.964;9.406;2023-09-12T02:22:04;14.77;;;9.33;;
13343;SDS011;6741;48.964;9.406;2023-09-12T02:24:33;12.43;;;8.63;;
13343;SDS011;6741;48.964;9.406;2023-09-12T02:27:00;15.47;;;8.93;;
13343;SDS011;6741;48.964;9.406;2023-09-12T02:29:27;19.23;;;8.47;;
13343;SDS011;6741;48.964;9.406;2023-09-12T02:31:55;10.13;;;8.40;;
13343;SDS011;6741;48.964;9.406;2023-09-12T02:34:22;10.90;;;8.10;;
13343;SDS011;6741;48.964;9.406;2023-09-12T02:36:50;14.13;;;9.33;;
13343;SDS011;6741;48.964;9.406;2023-09-12T02:39:17;10.90;;;7.77;;
13343;SDS011;6741;48.964;9.406;2023-09-12T02:41:44;15.40;;;8.77;;
13343;SDS011;6741;48.964;9.406;2023-09-12T02:44:11;19.23;;;8.43;;
13343;SDS011;6741;48.964;9.406;2023-09-12T02:46:37;13.20;;;9.47;;
13343;SDS011;6741;48.964;9.406;2023-09-12T02:49:04;16.63;;;8.90;;
13343;SDS011;6741;48.964;9.406;2023-09-12T02:51:31;11.70;;;8.60;;
13343;SDS011;6741;48.964;9.406;2023-09-12T02:53:59;11.60;;;9.13;;
13343;SDS011;6741;48.964;9.406;2023-09-12T02:56:26;13.32;;;9.25;;
13343;SDS011;6741;48.964;9.406;2023-09-12T02:58:53;11.10;;;9.20;;
13343;SDS011;6741;48.964;9.406;2023-09-12T03:01:20;13.00;;;9.45;;
13343;SDS011;6741;48.964;9.406;2023-09-12T03:03:47;11.95;;;9.57;;
13343;SDS011;6741;48.964;9.406;2023-09-12T03:06:14;12.00;;;9.38;;
13343;SDS011;6741;48.964;9.406;2023-09-12T03:08:43;11.93;;;9.18;;
13343;SDS011;6741;48.964;9.406;2023-09-12T03:11:11;15.02;;;10.38;;
13343;SDS011;6741;48.964;9.406;2023-09-12T03:13:39;14.95;;;9.85;;
13343;SDS011;6741;48.964;9.406;2023-09-12T03:16:09;18.42;;;9.95;;
13343;SDS011;6741;48.964;9.406;2023-09-12T03:18:36;11.40;;;8.77;;
13343;SDS011;6741;48.964;9.406;2023-09-12T03:21:03;12.48;;;9.18;;
13343;SDS011;6741;48.964;9.406;2023-09-12T03:23:30;11.18;;;8.75;;
13343;SDS011;6741;48.964;9.406;2023-09-12T03:25:59;10.88;;;9.20;;
13343;SDS011;6741;48.964;9.406;2023-09-12T03:28:29;10.93;;;9.20;;
13343;SDS011;6741;48.964;9.406;2023-09-12T03:31:02;11.52;;;8.68;;
13343;SDS011;6741;48.964;9.406;2023-09-12T03:33:30;12.60;;;9.45;;
13343;SDS011;6741;48.964;9.406;2023-09-12T03:35:57;11.73;;;8.38;;
13343;SDS011;6741;48.964;9.406;2023-09-12T03:38:24;10.43;;;8.23;;
13343;SDS011;6741;48.964;9.406;2023-09-12T03:40:51;14.63;;;9.77;;
13343;SDS011;6741;48.964;9.406;2023-09-12T03:43:20;15.35;;;9.65;;
13343;SDS011;6741;48.964;9.406;2023-09-12T03:45:50;15.73;;;9.43;;
13343;SDS011;6741;48.964;9.406;2023-09-12T03:48:16;12.23;;;9.43;;
13343;SDS011;6741;48.964;9.406;2023-09-12T03:50:44;20.42;;;9.95;;
13343;SDS011;6741;48.964;9.406;2023-09-12T03:53:11;13.13;;;9.47;;
13343;SDS011;6741;48.964;9.406;2023-09-12T03:55:39;13.85;;;9.27;;
13343;SDS011;6741;48.964;9.406;2023-09-12T03:58:06;11.10;;;9.30;;
13343;SDS011;6741;48.964;9.406;2023-09-12T04:00:33;12.23;;;9.68;;
13343;SDS011;6741;48.964;9.406;2023-09-12T04:03:01;11.25;;;9.13;;
13343;SDS011;6741;48.964;9.406;2023-09-12T04:05:28;12.13;;;9.87;;
13343;SDS011;6741;48.964;9.406;2023-09-12T04:07:55;15.23;;;11.57;;
13343;SDS011;6741;48.964;9.406;2023-09-12T04:10:22;16.60;;;13.37;;
13343;SDS011;6741;48.964;9.406;2023-09-12T04:12:49;18.17;;;13.27;;
13343;SDS011;6741;48.964;9.406;2023-09-12T04:15:15;13.63;;;10.73;;
13343;SDS011;6741;48.964;9.406;2023-09-12T04:17:42;15.10;;;11.23;;
13343;SDS011;6741;48.964;9.406;2023-09-12T04:20:11;12.17;;;10.60;;
13343;SDS011;6741;48.964;9.406;2023-09-12T04:22:39;14.63;;;10.17;;
13343;SDS011;6741;48.964;9.406;2023-09-12T04:25:06;12.97;;;10.70;;
13343;SDS011;6741;48.964;9.406;2023-09-12T04:27:33;11.45;;;10.10;;
13343;SDS011;6741;48.964;9.406;2023-09-12T04:30:00;15.30;;;10.40;;
13343;SDS011;6741;48.964;9.406;2023-09-12T04:32:27;14.40;;;10.27;;
13343;SDS011;6741;48.964;9.406;2023-09-12T04:34:55;21.23;;;10.20;;
13343;SDS011;6741;48.964;9.406;2023-09-12T04:37:23;13.23;;;10.03;;
13343;SDS011;6741;48.964;9.406;2023-09-12T04:39:50;13.53;;;9.90;;
13343;SDS011;6741;48.964;9.406;2023-09-12T04:42:17;13.75;;;10.65;;
13343;SDS011;6741;48.964;9.406;2023-09-12T04:44:43;15.70;;;9.70;;
13343;SDS011;6741;48.964;9.406;2023-09-12T04:47:11;11.20;;;9.73;;
13343;SDS011;6741;48.964;9.406;2023-09-12T04:49:38;12.63;;;9.97;;
13343;SDS011;6741;48.964;9.406;2023-09-12T04:52:05;20.60;;;9.67;;
13343;SDS011;6741;48.964;9.406;2023-09-12T04:54:34;15.60;;;10.23;;
13343;SDS011;6741;48.964;9.406;2023-09-12T04:57:01;16.83;;;10.30;;
13343;SDS011;6741;48.964;9.406;2023-09-12T04:59:28;14.47;;;10.07;;
13343;SDS011;6741;48.964;9.406;2023-09-12T05:01:55;14.90;;;9.93;;
13343;SDS011;6741;48.964;9.406;2023-09-12T05:04:22;13.83;;;9.17;;
13343;SDS011;6741;48.964;9.406;2023-09-12T05:06:49;14.18;;;10.05;;
13343;SDS011;6741;48.964;9.406;2023-09-12T05:09:16;15.53;;;10.17;;
13343;SDS011;6741;48.964;9.406;2023-09-12T05:11:46;13.50;;;10.00;;
13343;SDS011;6741;48.964;9.406;2023-09-12T05:14:30;13.40;;;9.75;;
13343;SDS011;6741;48.964;9.406;2023-09-12T05:16:56;13.77;;;9.25;;
13343;SDS011;6741;48.964;9.406;2023-09-12T05:19:23;13.80;;;10.18;;
13343;SDS011;6741;48.964;9.406;2023-09-12T05:21:51;22.65;;;11.50;;
13343;SDS011;6741;48.964;9.406;2023-09-12T05:24:18;17.83;;;10.25;;
13343;SDS011;6741;48.964;9.406;2023-09-12T05:26:46;14.82;;;9.10;;
13343;SDS011;6741;48.964;9.406;2023-09-12T05:29:14;12.50;;;9.38;;
13343;SDS011;6741;48.964;9.406;2023-09-12T05:31:41;15.07;;;9.50;;
13343;SDS011;6741;48.964;9.406;2023-09-12T05:34:08;17.17;;;9.23;;
13343;SDS011;6741;48.964;9.406;2023-09-12T05:36:35;13.65;;;9.43;;
13343;SDS011;6741;48.964;9.406;2023-09-12T05:39:01;17.35;;;9.82;;
13343;SDS011;6741;48.964;9.406;2023-09-12T05:41:29;16.88;;;8.65;;
13343;SDS011;6741;48.964;9.406;2023-09-12T05:43:57;11.85;;;9.15;;
13343;SDS011;6741;48.964;9.406;2023-09-12T05:46:24;15.43;;;9.13;;
13343;SDS011;6741;48.964;9.406;2023-09-12T05:48:50;12.45;;;8.85;;
13343;SDS011;6741;48.964;9.406;2023-09-12T05:51:17;13.10;;;9.40;;
13343;SDS011;6741;48.964;9.406;2023-09-12T05:53:44;12.45;;;9.15;;
13343;SDS011;6741;48.964;9.406;2023-09-12T05:56:11;13.43;;;9.20;;
13343;SDS011;6741;48.964;9.406;2023-09-12T05:58:38;14.50;;;9.38;;
13343;SDS011;6741;48.964;9.406;2023-09-12T06:01:09;15.90;;;9.43;;
13343;SDS011;6741;48.964;9.406;2023-09-12T06:03:35;17.23;;;10.20;;
13343;SDS011;6741;48.964;9.406;2023-09-12T06:06:02;15.10;;;9.27;;
13343;SDS011;6741;48.964;9.406;2023-09-12T06:08:30;13.55;;;8.98;;
13343;SDS011;6741;48.964;9.406;2023-09-12T06:10:56;9.88;;;8.77;;
13343;SDS011;6741;48.964;9.406;2023-09-12T06:13:23;10.98;;;9.48;;
13343;SDS011;6741;48.964;9.406;2023-09-12T06:15:50;12.93;;;9.35;;
13343;SDS011;6741;48.964;9.406;2023-09-12T06:18:18;13.10;;;9.27;;
13343;SDS011;6741;48.964;9.406;2023-09-12T06:20:45;11.85;;;9.05;;
13343;SDS011;6741;48.964;9.406;2023-09-12T06:23:12;12.73;;;9.35;;
13343;SDS011;6741;48.964;9.406;2023-09-12T06:25:39;13.65;;;8.68;;
13343;SDS011;6741;48.964;9.406;2023-09-12T06:28:08;13.32;;;9.00;;
13343;SDS011;6741;48.964;9.406;2023-09-12T06:30:36;15.23;;;8.45;;
13343;SDS011;6741;48.964;9.406;2023-09-12T06:33:03;11.30;;;7.55;;
13343;SDS011;6741;48.964;9.406;2023-09-12T06:35:32;15.10;;;8.35;;
13343;SDS011;6741;48.964;9.406;2023-09-12T06:37:59;12.10;;;7.38;;
13343;SDS011;6741;48.964;9.406;2023-09-12T06:40:26;13.10;;;8.63;;
13343;SDS011;6741;48.964;9.406;2023-09-12T06:42:53;11.73;;;7.43;;
13343;SDS011;6741;48.964;9.406;2023-09-12T06:45:20;18.00;;;8.68;;
13343;SDS011;6741;48.964;9.406;2023-09-12T06:47:47;12.05;;;8.25;;
13343;SDS011;6741;48.964;9.406;2023-09-12T06:50:13;8.82;;;7.63;;
13343;SDS011;6741;48.964;9.406;2023-09-12T06:52:42;13.13;;;8.52;;
13343;SDS011;6741;48.964;9.406;2023-09-12T06:55:08;15.45;;;8.55;;
13343;SDS011;6741;48.964;9.406;2023-09-12T06:57:35;12.73;;;8.60;;
13343;SDS011;6741;48.964;9.406;2023-09-12T07:00:02;10.32;;;8.15;;
13343;SDS011;6741;48.964;9.406;2023-09-12T07:02:31;12.60;;;8.00;;
13343;SDS011;6741;48.964;9.406;2023-09-12T07:04:58;14.18;;;8.05;;
13343;SDS011;6741;48.964;9.406;2023-09-12T07:07:25;16.23;;;8.90;;
13343;SDS011;6741;48.964;9.406;2023-09-12T07:09:53;12.48;;;8.80;;
13343;SDS011;6741;48.964;9.406;2023-09-12T07:12:20;13.90;;;7.95;;
13343;SDS011;6741;48.964;9.406;2023-09-12T07:14:47;13.23;;;8.52;;
13343;SDS011;6741;48.964;9.406;2023-09-12T07:17:16;12.45;;;8.45;;
13343;SDS011;6741;48.964;9.406;2023-09-12T07:19:43;14.95;;;8.25;;
13343;SDS011;6741;48.964;9.406;2023-09-12T07:22:10;13.48;;;7.97;;
13343;SDS011;6741;48.964;9.406;2023-09-12T07:24:37;12.63;;;8.15;;
13343;SDS011;6741;48.964;9.406;2023-09-12T07:27:05;10.60;;;7.85;;
13343;SDS011;6741;48.964;9.406;2023-09-12T07:29:32;12.20;;;7.43;;
13343;SDS011;6741;48.964;9.406;2023-09-12T07:31:59;10.07;;;7.93;;
13343;SDS011;6741;48.964;9.406;2023-09-12T07:34:26;13.63;;;6.97;;
13343;SDS011;6741;48.964;9.406;2023-09-12T07:36:53;11.30;;;7.35;;
13343;SDS011;6741;48.964;9.406;2023-09-12T07:39:20;7.75;;;6.80;;
13343;SDS011;6741;48.964;9.406;2023-09-12T07:41:47;9.07;;;7.47;;
13343;SDS011;6741;48.964;9.406;2023-09-12T07:44:15;11.98;;;7.68;;
13343;SDS011;6741;48.964;9.406;2023-09-12T07:46:42;14.02;;;8.02;;
13343;SDS011;6741;48.964;9.406;2023-09-12T07:49:10;11.10;;;7.95;;
13343;SDS011;6741;48.964;9.406;2023-09-12T07:51:36;11.00;;;7.70;;
13343;SDS011;6741;48.964;9.406;2023-09-12T07:54:03;12.73;;;8.35;;
13343;SDS011;6741;48.964;9.406;2023-09-12T07:56:30;13.00;;;8.50;;
13343;SDS011;6741;48.964;9.406;2023-09-12T07:58:57;13.73;;;8.57;;
13343;SDS011;6741;48.964;9.406;2023-09-12T08:01:25;15.30;;;8.75;;
13343;SDS011;6741;48.964;9.406;2023-09-12T08:03:53;11.35;;;8.55;;
13343;SDS011;6741;48.964;9.406;2023-09-12T08:06:20;13.15;;;8.38;;
13343;SDS011;6741;48.964;9.406;2023-09-12T08:08:49;12.90;;;9.15;;
13343;SDS011;6741;48.964;9.406;2023-09-12T08:11:15;9.63;;;8.55;;
13343;SDS011;6741;48.964;9.406;2023-09-12T08:13:42;10.15;;;8.52;;
13343;SDS011;6741;48.964;9.406;2023-09-12T08:16:09;10.90;;;8.93;;
13343;SDS011;6741;48.964;9.406;2023-09-12T08:18:38;12.52;;;9.13;;
13343;SDS011;6741;48.964;9.406;2023-09-12T08:21:04;16.88;;;9.85;;
13343;SDS011;6741;48.964;9.406;2023-09-12T08:23:31;13.95;;;10.05;;
13343;SDS011;6741;48.964;9.406;2023-09-12T08:25:58;12.50;;;8.55;;
13343;SDS011;6741;48.964;9.406;2023-09-12T08:28:25;12.52;;;9.00;;
13343;SDS011;6741;48.964;9.406;2023-09-12T08:30:52;11.20;;;8.57;;
13343;SDS011;6741;48.964;9.406;2023-09-12T08:33:19;12.15;;;8.70;;
13343;SDS011;6741;48.964;9.406;2023-09-12T08:35:48;11.82;;;9.27;;
13343;SDS011;6741;48.964;9.406;2023-09-12T08:38:15;13.25;;;10.20;;
13343;SDS011;6741;48.964;9.406;2023-09-12T08:40:47;11.00;;;9.25;;
13343;SDS011;6741;48.964;9.406;2023-09-12T08:43:15;10.02;;;8.90;;
13343;SDS011;6741;48.964;9.406;2023-09-12T08:45:42;13.48;;;9.35;;
13343;SDS011;6741;48.964;9.406;2023-09-12T08:48:09;11.68;;;9.80;;
13343;SDS011;6741;48.964;9.406;2023-09-12T08:50:37;11.13;;;8.48;;
13343;SDS011;6741;48.964;9.406;2023-09-12T08:53:05;11.05;;;9.13;;
13343;SDS011;6741;48.964;9.406;2023-09-12T08:55:32;13.73;;;9.20;;
13343;SDS011;6741;48.964;9.406;2023-09-12T08:58:00;12.02;;;8.40;;
13343;SDS011;6741;48.964;9.406;2023-09-12T09:00:29;9.13;;;8.23;;
13343;SDS011;6741;48.964;9.406;2023-09-12T09:02:56;11.20;;;8.80;;
13343;SDS011;6741;48.964;9.406;2023-09-12T09:05:24;13.27;;;8.85;;
13343;SDS011;6741;48.964;9.406;2023-09-12T09:07:51;14.07;;;9.20;;
13343;SDS011;6741;48.964;9.406;2023-09-12T09:10:21;23.05;;;8.80;;
13343;SDS011;6741;48.964;9.406;2023-09-12T09:12:49;17.52;;;8.30;;
13343;SDS011;6741;48.964;9.406;2023-09-12T09:15:23;12.05;;;9.07;;
13343;SDS011;6741;48.964;9.406;2023-09-12T09:17:51;11.82;;;9.07;;
13343;SDS011;6741;48.964;9.406;2023-09-12T09:23:04;16.10;;;12.05;;
13343;SDS011;6741;48.964;9.406;2023-09-12T09:25:36;15.15;;;10.68;;
13343;SDS011;6741;48.964;9.406;2023-09-12T09:28:15;11.07;;;9.70;;
13343;SDS011;6741;48.964;9.406;2023-09-12T09:30:43;12.75;;;9.82;;
13343;SDS011;6741;48.964;9.406;2023-09-12T09:33:12;13.68;;;11.48;;
13343;SDS011;6741;48.964;9.406;2023-09-12T09:35:40;16.23;;;12.50;;
13343;SDS011;6741;48.964;9.406;2023-09-12T09:38:08;16.05;;;12.52;;
13343;SDS011;6741;48.964;9.406;2023-09-12T09:40:36;15.57;;;12.60;;
13343;SDS011;6741;48.964;9.406;2023-09-12T09:43:03;17.27;;;10.88;;
13343;SDS011;6741;48.964;9.406;2023-09-12T09:45:31;12.60;;;11.20;;
13343;SDS011;6741;48.964;9.406;2023-09-12T09:47:58;13.25;;;12.05;;
13343;SDS011;6741;48.964;9.406;2023-09-12T09:50:25;16.90;;;12.90;;
13343;SDS011;6741;48.964;9.406;2023-09-12T09:52:54;15.23;;;12.55;;
13343;SDS011;6741;48.964;9.406;2023-09-12T09:55:23;13.77;;;11.90;;
13343;SDS011;6741;48.964;9.406;2023-09-12T09:57:51;14.15;;;11.20;;
13343;SDS011;6741;48.964;9.406;2023-09-12T10:00:19;12.32;;;11.10;;
13343;SDS011;6741;48.964;9.406;2023-09-12T10:02:48;12.85;;;9.98;;
13343;SDS011;6741;48.964;9.406;2023-09-12T10:05:16;13.60;;;9.77;;
13343;SDS011;6741;48.964;9.406;2023-09-12T10:07:44;10.60;;;9.55;;
13343;SDS011;6741;48.964;9.406;2023-09-12T10:10:15;13.25;;;9.48;;
13343;SDS011;6741;48.964;9.406;2023-09-12T10:12:44;11.43;;;10.23;;
13343;SDS011;6741;48.964;9.406;2023-09-12T10:15:16;14.57;;;9.90;;
13343;SDS011;6741;48.964;9.406;2023-09-12T10:17:46;10.73;;;8.95;;
13343;SDS011;6741;48.964;9.406;2023-09-12T10:20:18;14.88;;;11.68;;
13343;SDS011;6741;48.964;9.406;2023-09-12T10:22:53;13.35;;;12.00;;
13343;SDS011;6741;48.964;9.406;2023-09-12T10:25:27;14.63;;;11.88;;
13343;SDS011;6741;48.964;9.406;2023-09-12T10:27:55;12.30;;;10.65;;
13343;SDS011;6741;48.964;9.406;2023-09-12T10:30:23;12.88;;;9.07;;
13343;SDS011;6741;48.964;9.406;2023-09-12T10:32:51;9.50;;;8.70;;
13343;SDS011;6741;48.964;9.406;2023-09-12T10:35:19;12.10;;;8.43;;
13343;SDS011;6741;48.964;9.406;2023-09-12T10:37:46;11.38;;;8.38;;
13343;SDS011;6741;48.964;9.406;2023-09-12T10:40:17;11.50;;;9.77;;
13343;SDS011;6741;48.964;9.406;2023-09-12T10:42:45;10.45;;;9.02;;
13343;SDS011;6741;48.964;9.406;2023-09-12T10:45:13;11.05;;;8.73;;
13343;SDS011;6741;48.964;9.406;2023-09-12T10:47:47;10.85;;;9.13;;
13343;SDS011;6741;48.964;9.406;2023-09-12T10:50:14;9.80;;;8.80;;
13343;SDS011;6741;48.964;9.406;2023-09-12T10:52:42;10.82;;;8.90;;
13343;SDS011;6741;48.964;9.406;2023-09-12T10:55:10;10.98;;;8.10;;
13343;SDS011;6741;48.964;9.406;2023-09-12T11:00:29;8.63;;;7.75;;
13343;SDS011;6741;48.964;9.406;2023-09-12T11:02:59;9.38;;;7.32;;
13343;SDS011;6741;48.964;9.406;2023-09-12T11:05:50;12.25;;;7.25;;
13343;SDS011;6741;48.964;9.406;2023-09-12T11:08:18;8.20;;;6.75;;
13343;SDS011;6741;48.964;9.406;2023-09-12T11:10:48;7.50;;;6.40;;
13343;SDS011;6741;48.964;9.406;2023-09-12T11:13:46;7.38;;;6.47;;
13343;SDS011;6741;48.964;9.406;2023-09-12T11:16:13;7.60;;;6.80;;
13343;SDS011;6741;48.964;9.406;2023-09-12T11:21:39;8.65;;;6.72;;
13343;SDS011;6741;48.964;9.406;2023-09-12T11:24:07;7.32;;;5.78;;
13343;SDS011;6741;48.964;9.406;2023-09-12T11:26:33;10.13;;;6.93;;
13343;SDS011;6741;48.964;9.406;2023-09-12T11:29:10;10.35;;;6.40;;
13343;SDS011;6741;48.964;9.406;2023-09-12T11:31:38;12.38;;;6.88;;
13343;SDS011;6741;48.964;9.406;2023-09-12T11:34:08;7.80;;;6.00;;
13343;SDS011;6741;48.964;9.406;2023-09-12T11:36:39;7.28;;;6.22;;
13343;SDS011;6741;48.964;9.406;2023-09-12T11:39:21;8.15;;;6.28;;
13343;SDS011;6741;48.964;9.406;2023-09-12T11:41:49;6.57;;;5.93;;
13343;SDS011;6741;48.964;9.406;2023-09-12T11:44:17;10.00;;;6.45;;
13343;SDS011;6741;48.964;9.406;2023-09-12T11:46:46;7.80;;;6.32;;
13343;SDS011;6741;48.964;9.406;2023-09-12T11:49:15;9.45;;;6.55;;
13343;SDS011;6741;48.964;9.406;2023-09-12T11:51:47;8.43;;;6.30;;
13343;SDS011;6741;48.964;9.406;2023-09-12T11:54:15;8.70;;;6.30;;
13343;SDS011;6741;48.964;9.406;2023-09-12T11:56:44;7.45;;;5.85;;
13343;SDS011;6741;48.964;9.406;2023-09-12T11:59:11;9.65;;;6.30;;
13343;SDS011;6741;48.964;9.406;2023-09-12T12:01:38;9.52;;;6.18;;
13343;SDS011;6741;48.964;9.406;2023-09-12T12:04:05;8.20;;;6.00;;
13343;SDS011;6741;48.964;9.406;2023-09-12T12:06:32;6.25;;;5.38;;
13343;SDS011;6741;48.964;9.406;2023-09-12T12:09:02;8.88;;;6.55;;
13343;SDS011;6741;48.964;9.406;2023-09-12T12:11:29;9.52;;;6.15;;
13343;SDS011;6741;48.964;9.406;2023-09-12T12:13:56;7.78;;;5.55;;
13343;SDS011;6741;48.964;9.406;2023-09-12T12:16:25;7.82;;;5.90;;
13343;SDS011;6741;48.964;9.406;2023-09-12T12:18:52;6.47;;;5.68;;
13343;SDS011;6741;48.964;9.406;2023-09-12T12:21:21;9.23;;;5.90;;
13343;SDS011;6741;48.964;9.406;2023-09-12T12:23:56;6.10;;;5.50;;
13343;SDS011;6741;48.964;9.406;2023-09-12T12:26:25;12.48;;;5.55;;
13343;SDS011;6741;48.964;9.406;2023-09-12T12:28:52;6.88;;;5.93;;
13343;SDS011;6741;48.964;9.406;2023-09-12T12:31:19;5.82;;;5.30;;
13343;SDS011;6741;48.964;9.406;2023-09-12T12:33:49;7.85;;;5.68;;
13343;SDS011;6741;48.964;9.406;2023-09-12T12:36:16;5.97;;;5.45;;
13343;SDS011;6741;48.964;9.406;2023-09-12T12:38:43;6.65;;;5.00;;
13343;SDS011;6741;48.964;9.406;2023-09-12T12:41:12;5.40;;;4.90;;
13343;SDS011;6741;48.964;9.406;2023-09-12T12:43:42;5.93;;;5.35;;
13343;SDS011;6741;48.964;9.406;2023-09-12T12:46:10;6.10;;;5.50;;
13343;SDS011;6741;48.964;9.406;2023-09-12T12:48:38;5.30;;;4.85;;
13343;SDS011;6741;48.964;9.406;2023-09-12T12:51:13;6.60;;;5.35;;
13343;SDS011;6741;48.964;9.406;2023-09-12T12:53:43;6.82;;;5.53;;
13343;SDS011;6741;48.964;9.406;2023-09-12T12:56:13;5.72;;;5.22;;
13343;SDS011;6741;48.964;9.406;2023-09-12T12:58:46;6.20;;;5.07;;
13343;SDS011;6741;48.964;9.406;2023-09-12T13:01:14;9.18;;;5.20;;
13343;SDS011;6741;48.964;9.406;2023-09-12T13:03:42;5.38;;;4.88;;
13343;SDS011;6741;48.964;9.406;2023-09-12T13:06:09;6.20;;;5.20;;
13343;SDS011;6741;48.964;9.406;2023-09-12T13:08:39;6.35;;;5.45;;
13343;SDS011;6741;48.964;9.406;2023-09-12T13:11:07;7.32;;;5.00;;
13343;SDS011;6741;48.964;9.406;2023-09-12T13:13:34;7.38;;;4.97;;
13343;SDS011;6741;48.964;9.406;2023-09-12T13:16:02;6.57;;;5.80;;
13343;SDS011;6741;48.964;9.406;2023-09-12T13:18:31;7.65;;;4.70;;
13343;SDS011;6741;48.964;9.406;2023-09-12T13:20:58;7.20;;;4.85;;
13343;SDS011;6741;48.964;9.406;2023-09-12T13:23:25;7.43;;;5.22;;
13343;SDS011;6741;48.964;9.406;2023-09-12T13:25:51;5.30;;;4.80;;
13343;SDS011;6741;48.964;9.406;2023-09-12T13:28:18;8.32;;;5.63;;
13343;SDS011;6741;48.964;9.406;2023-09-12T13:30:45;5.63;;;4.55;;
13343;SDS011;6741;48.964;9.406;2023-09-12T13:33:14;6.22;;;5.05;;
13343;SDS011;6741;48.964;9.406;2023-09-12T13:35:41;6.32;;;5.50;;
13343;SDS011;6741;48.964;9.406;2023-09-12T13:38:08;5.07;;;4.68;;
13343;SDS011;6741;48.964;9.406;2023-09-12T13:40:36;6.00;;;5.13;;
13343;SDS011;6741;48.964;9.406;2023-09-12T13:43:03;6.05;;;5.05;;
13343;SDS011;6741;48.964;9.406;2023-09-12T13:45:30;6.68;;;5.97;;
13343;SDS011;6741;48.964;9.406;2023-09-12T13:47:57;6.15;;;5.65;;
13343;SDS011;6741;48.964;9.406;2023-09-12T13:50:26;7.47;;;5.78;;
13343;SDS011;6741;48.964;9.406;2023-09-12T13:52:53;8.27;;;5.85;;
13343;SDS011;6741;48.964;9.406;2023-09-12T13:55:21;7.35;;;5.35;;
13343;SDS011;6741;48.964;9.406;2023-09-12T13:57:48;6.40;;;5.80;;
13343;SDS011;6741;48.964;9.406;2023-09-12T14:00:15;10.73;;;5.72;;
13343;SDS011;6741;48.964;9.406;2023-09-12T14:02:41;6.32;;;5.82;;
13343;SDS011;6741;48.964;9.406;2023-09-12T14:05:09;6.43;;;5.32;;
13343;SDS011;6741;48.964;9.406;2023-09-12T14:07:38;5.72;;;4.97;;
13343;SDS011;6741;48.964;9.406;2023-09-12T14:10:05;7.03;;;5.60;;
13343;SDS011;6741;48.964;9.406;2023-09-12T14:12:33;6.03;;;5.40;;
13343;SDS011;6741;48.964;9.406;2023-09-12T14:15:00;6.18;;;5.68;;
13343;SDS011;6741;48.964;9.406;2023-09-12T14:17:28;6.28;;;5.47;;
13343;SDS011;6741;48.964;9.406;2023-09-12T14:19:55;6.47;;;5.88;;
13343;SDS011;6741;48.964;9.406;2023-09-12T14:22:22;8.38;;;5.72;;
13343;SDS011;6741;48.964;9.406;2023-09-12T14:24:50;8.30;;;5.90;;
13343;SDS011;6741;48.964;9.406;2023-09-12T14:27:17;6.03;;;5.10;;
13343;SDS011;6741;48.964;9.406;2023-09-12T14:29:44;6.57;;;5.55;;
13343;SDS011;6741;48.964;9.406;2023-09-12T14:32:13;6.55;;;5.95;;
13343;SDS011;6741;48.964;9.406;2023-09-12T14:34:40;6.60;;;5.65;;
13343;SDS011;6741;48.964;9.406;2023-09-12T14:37:07;8.00;;;5.43;;
13343;SDS011;6741;48.964;9.406;2023-09-12T14:39:34;6.65;;;5.43;;
13343;SDS011;6741;48.964;9.406;2023-09-12T14:42:03;6.43;;;5.80;;
13343;SDS011;6741;48.964;9.406;2023-09-12T14:44:34;5.75;;;5.25;;
13343;SDS011;6741;48.964;9.406;2023-09-12T14:47:00;7.57;;;5.90;;
13343;SDS011;6741;48.964;9.406;2023-09-12T14:49:28;6.18;;;5.72;;
13343;SDS011;6741;48.964;9.406;2023-09-12T14:51:54;7.35;;;6.28;;
13343;SDS011;6741;48.964;9.406;2023-09-12T14:54:21;6.57;;;5.82;;
13343;SDS011;6741;48.964;9.406;2023-09-12T14:56:48;7.18;;;6.00;;
13343;SDS011;6741;48.964;9.406;2023-09-12T14:59:17;6.25;;;5.53;;
13343;SDS011;6741;48.964;9.406;2023-09-12T15:01:46;8.02;;;6.18;;
13343;SDS011;6741;48.964;9.406;2023-09-12T15:04:13;6.00;;;5.43;;